Time;durP1;ratioP1;P1;durP2;ratioP2;P2;SDS_P1;SDS_P2;PMS_P1;PMS_P2;Temp;Humidity;BMP_temperature;BMP_pressure;BME280_temperature;BME280_humidity;BME280_pressure;Samples;Min_cycle;Max_cycle;Signal;HPM_P1;HPM_P2
2023/03/07 00:01:27;;;;;;;12.45;9.85;;;3.40;99.90;;;;;;5013784;28;20181;-73
2023/03/07 00:03:53;;;;;;;12.67;9.63;;;3.40;99.90;;;;;;5011128;28;20212;-73
2023/03/07 00:06:19;;;;;;;12.37;9.97;;;3.30;99.90;;;;;;5010969;28;20201;-74
2023/03/07 00:08:48;;;;;;;9.73;8.68;;;3.20;99.90;;;;;;5012307;28;20200;-74
2023/03/07 00:11:14;;;;;;;11.43;9.23;;;3.20;99.90;;;;;;5020599;28;20587;-74
2023/03/07 00:13:39;;;;;;;12.33;9.60;;;3.20;99.90;;;;;;5020172;28;20204;-73
2023/03/07 00:16:09;;;;;;;11.60;9.30;;;3.20;99.90;;;;;;5023492;28;20181;-74
2023/03/07 00:18:35;;;;;;;11.30;9.00;;;3.20;99.90;;;;;;5020288;28;20742;-74
2023/03/07 00:21:07;;;;;;;11.93;9.60;;;3.30;99.90;;;;;;5020121;28;20188;-73
2023/03/07 00:23:33;;;;;;;13.17;9.53;;;3.30;99.90;;;;;;5021103;28;20212;-73
2023/03/07 00:26:03;;;;;;;11.35;8.85;;;3.30;99.90;;;;;;5019503;28;20181;-73
2023/03/07 00:28:29;;;;;;;14.07;8.63;;;3.30;99.90;;;;;;5017437;28;20196;-73
2023/03/07 00:30:59;;;;;;;13.38;10.45;;;3.30;99.90;;;;;;5020268;28;20192;-74
2023/03/07 00:33:25;;;;;;;12.90;10.27;;;3.30;99.90;;;;;;5020484;28;20177;-73
2023/03/07 00:36:05;;;;;;;14.93;9.77;;;3.20;99.90;;;;;;5020706;28;20192;-73
2023/03/07 00:38:31;;;;;;;11.25;8.88;;;3.20;99.90;;;;;;5017312;28;20220;-73
2023/03/07 00:40:59;;;;;;;12.20;9.60;;;3.10;99.90;;;;;;5023304;28;20185;-73
2023/03/07 00:43:26;;;;;;;10.90;8.30;;;3.20;99.90;;;;;;5023623;28;20204;-73
2023/03/07 00:45:51;;;;;;;15.68;11.10;;;3.20;99.90;;;;;;5022733;28;20176;-73
2023/03/07 00:48:17;;;;;;;14.55;10.50;;;3.10;99.90;;;;;;5023078;28;20194;-73
2023/03/07 00:50:44;;;;;;;11.45;8.88;;;3.20;99.90;;;;;;5022131;28;20184;-74
2023/03/07 00:53:09;;;;;;;13.82;9.95;;;3.20;99.90;;;;;;5022836;28;20219;-73
2023/03/07 00:55:35;;;;;;;10.25;9.18;;;3.30;99.90;;;;;;5025741;28;20217;-73
2023/03/07 00:58:00;;;;;;;13.47;10.00;;;3.30;99.90;;;;;;5025555;28;20181;-73
2023/03/07 01:00:26;;;;;;;15.20;8.68;;;3.30;99.90;;;;;;5023341;28;20258;-73
2023/03/07 01:02:51;;;;;;;13.85;10.07;;;3.20;99.90;;;;;;5024592;28;20181;-73
2023/03/07 01:05:17;;;;;;;11.33;9.27;;;3.10;99.90;;;;;;5024387;28;20276;-74
2023/03/07 01:07:42;;;;;;;11.37;7.97;;;3.10;99.90;;;;;;5025533;28;20184;-73
2023/03/07 01:10:08;;;;;;;12.27;8.50;;;3.10;99.90;;;;;;5024869;28;20217;-73
2023/03/07 01:12:34;;;;;;;11.60;9.70;;;3.00;99.90;;;;;;5024615;28;20640;-73
2023/03/07 01:15:00;;;;;;;11.52;8.60;;;3.10;99.90;;;;;;5025033;28;20196;-73
2023/03/07 01:17:25;;;;;;;15.27;9.80;;;3.20;99.90;;;;;;5020648;28;20626;-73
2023/03/07 01:19:51;;;;;;;9.77;8.43;;;3.20;99.90;;;;;;5023645;28;20262;-73
2023/03/07 01:22:17;;;;;;;11.83;9.57;;;3.20;99.90;;;;;;5023783;28;20185;-73
2023/03/07 01:24:42;;;;;;;12.45;9.15;;;3.10;99.90;;;;;;5024116;28;20570;-73
2023/03/07 01:27:08;;;;;;;9.38;7.68;;;3.10;99.90;;;;;;5026658;28;20263;-73
2023/03/07 01:29:33;;;;;;;12.53;9.07;;;3.20;99.90;;;;;;5021103;28;20205;-74
2023/03/07 01:31:59;;;;;;;12.73;9.20;;;3.30;99.90;;;;;;5027000;28;20228;-74
2023/03/07 01:34:24;;;;;;;10.73;8.17;;;3.20;99.90;;;;;;5022685;28;20185;-74
2023/03/07 01:36:50;;;;;;;10.17;8.30;;;3.30;99.90;;;;;;5022130;28;20608;-76
2023/03/07 01:39:16;;;;;;;11.27;9.17;;;3.20;99.90;;;;;;5021120;28;20208;-75
2023/03/07 01:41:43;;;;;;;10.77;9.27;;;3.10;99.90;;;;;;5025090;28;20674;-74
2023/03/07 01:44:21;;;;;;;12.23;9.27;;;3.10;99.90;;;;;;5023588;28;20213;-74
2023/03/07 01:46:52;;;;;;;11.18;8.57;;;3.00;99.90;;;;;;5022511;28;20176;-73
2023/03/07 01:49:37;;;;;;;11.55;9.45;;;3.10;99.90;;;;;;5023835;28;20266;-73
2023/03/07 01:52:13;;;;;;;12.50;9.07;;;3.00;99.90;;;;;;5024139;28;20175;-73
2023/03/07 01:54:47;;;;;;;10.38;8.52;;;3.10;99.90;;;;;;5021314;28;20758;-74
2023/03/07 01:57:15;;;;;;;11.10;9.77;;;3.20;99.90;;;;;;5022881;28;20187;-74
2023/03/07 01:59:45;;;;;;;7.20;5.53;;;3.20;99.90;;;;;;5020585;28;20288;-74
2023/03/07 02:02:17;;;;;;;9.60;6.90;;;3.20;99.90;;;;;;5023060;28;20584;-73
2023/03/07 02:04:56;;;;;;;10.53;9.13;;;3.20;99.90;;;;;;5023726;28;20287;-74
2023/03/07 02:07:23;;;;;;;11.70;9.07;;;3.10;99.90;;;;;;5023367;28;20659;-73
2023/03/07 02:09:51;;;;;;;10.40;8.33;;;3.10;99.90;;;;;;5022439;28;20565;-73
2023/03/07 02:12:17;;;;;;;12.32;9.25;;;3.10;99.90;;;;;;5025292;28;20168;-73
2023/03/07 02:14:44;;;;;;;10.47;8.27;;;3.10;99.90;;;;;;5022141;28;20200;-74
2023/03/07 02:17:10;;;;;;;9.80;7.72;;;3.10;99.90;;;;;;5022549;28;20189;-73
2023/03/07 02:19:43;;;;;;;15.65;9.55;;;3.10;99.90;;;;;;5022118;28;20212;-73
2023/03/07 02:22:12;;;;;;;11.07;8.50;;;3.10;99.90;;;;;;5023778;28;20198;-72
2023/03/07 02:24:44;;;;;;;11.90;9.20;;;3.00;99.90;;;;;;5022494;28;20204;-76
2023/03/07 02:27:10;;;;;;;10.07;8.60;;;3.10;99.90;;;;;;5021356;28;20181;-77
2023/03/07 02:29:35;;;;;;;12.00;8.80;;;3.10;99.90;;;;;;5023084;28;20339;-75
2023/03/07 02:32:01;;;;;;;10.77;8.30;;;3.20;99.90;;;;;;5022560;28;20189;-76
2023/03/07 02:34:30;;;;;;;10.27;8.57;;;3.10;99.90;;;;;;5022400;28;20577;-74
2023/03/07 02:37:03;;;;;;;9.37;7.23;;;3.10;99.90;;;;;;5023379;28;20454;-76
2023/03/07 02:39:29;;;;;;;10.27;8.67;;;3.00;99.90;;;;;;5021241;28;20571;-74
2023/03/07 02:42:03;;;;;;;10.07;8.50;;;3.00;99.90;;;;;;5021414;28;20172;-73
2023/03/07 02:44:29;;;;;;;11.10;9.00;;;3.00;99.90;;;;;;5021247;28;20706;-73
2023/03/07 02:46:54;;;;;;;10.38;8.45;;;3.00;99.90;;;;;;5021675;28;20185;-73
2023/03/07 02:49:20;;;;;;;10.82;7.80;;;3.00;99.90;;;;;;5024493;28;20695;-74
2023/03/07 02:51:45;;;;;;;13.73;8.95;;;3.00;99.90;;;;;;5019963;28;20180;-73
2023/03/07 02:54:11;;;;;;;10.83;8.60;;;3.10;99.90;;;;;;5021204;28;20212;-73
2023/03/07 02:56:37;;;;;;;10.65;7.95;;;3.00;99.90;;;;;;5023490;28;20562;-74
2023/03/07 02:59:03;;;;;;;10.13;8.25;;;3.10;99.90;;;;;;5021407;28;20964;-74
2023/03/07 03:01:28;;;;;;;11.68;8.88;;;3.10;99.90;;;;;;5023054;28;20195;-74
2023/03/07 03:03:54;;;;;;;10.90;8.40;;;3.10;99.90;;;;;;5021069;28;20303;-75
2023/03/07 03:06:20;;;;;;;10.73;7.28;;;3.10;99.90;;;;;;5022046;28;20191;-73
2023/03/07 03:08:46;;;;;;;10.77;8.07;;;3.00;99.90;;;;;;5022075;28;20812;-74
2023/03/07 03:11:11;;;;;;;10.50;7.23;;;3.10;99.90;;;;;;5021243;28;20192;-74
2023/03/07 03:13:37;;;;;;;12.73;8.82;;;3.00;99.90;;;;;;5020310;28;20205;-76
2023/03/07 03:16:02;;;;;;;11.70;8.57;;;3.00;99.90;;;;;;5024850;28;20191;-75
2023/03/07 03:18:29;;;;;;;10.65;8.25;;;2.90;99.90;;;;;;5022523;28;20197;-73
2023/03/07 03:20:55;;;;;;;11.20;7.95;;;2.90;99.90;;;;;;5022659;28;20180;-74
2023/03/07 03:23:20;;;;;;;12.32;10.02;;;3.00;99.90;;;;;;5017808;28;20587;-74
2023/03/07 03:25:59;;;;;;;11.83;8.90;;;3.10;99.90;;;;;;5022938;28;20557;-75
2023/03/07 03:28:25;;;;;;;8.80;7.27;;;3.00;99.90;;;;;;5021970;28;20199;-73
2023/03/07 03:30:58;;;;;;;10.60;7.80;;;2.90;99.90;;;;;;5023563;28;20172;-73
2023/03/07 03:33:25;;;;;;;12.33;8.20;;;2.80;99.90;;;;;;5022138;28;20181;-73
2023/03/07 03:35:50;;;;;;;13.30;9.03;;;2.90;99.90;;;;;;5021308;28;20181;-73
2023/03/07 03:38:16;;;;;;;4.63;4.03;;;2.90;99.90;;;;;;5019244;28;20191;-73
2023/03/07 03:40:41;;;;;;;11.17;8.50;;;2.90;99.90;;;;;;5021342;28;20284;-73
2023/03/07 03:43:07;;;;;;;11.07;7.77;;;2.90;99.90;;;;;;5022012;28;20195;-73
2023/03/07 03:45:32;;;;;;;10.90;8.33;;;2.90;99.90;;;;;;5023583;28;20566;-73
2023/03/07 03:47:58;;;;;;;10.93;9.00;;;2.90;99.90;;;;;;5022115;28;20188;-73
2023/03/07 03:50:23;;;;;;;11.63;9.33;;;2.80;99.90;;;;;;5020718;28;20247;-73
2023/03/07 03:52:49;;;;;;;12.23;8.90;;;2.80;99.90;;;;;;5022969;28;20181;-74
2023/03/07 03:55:15;;;;;;;9.77;8.00;;;2.70;99.90;;;;;;5023503;28;20175;-73
2023/03/07 03:57:40;;;;;;;11.53;8.93;;;2.70;99.90;;;;;;5021118;28;20230;-73
2023/03/07 04:00:08;;;;;;;9.93;8.77;;;2.60;99.90;;;;;;5021607;28;20560;-73
2023/03/07 04:02:33;;;;;;;10.03;7.67;;;2.50;99.90;;;;;;5023913;28;20207;-74
2023/03/07 04:04:59;;;;;;;11.53;8.17;;;2.50;99.90;;;;;;5021805;28;20216;-73
2023/03/07 04:07:27;;;;;;;10.73;8.13;;;2.50;99.90;;;;;;5021788;28;20185;-73
2023/03/07 04:09:53;;;;;;;11.20;8.10;;;2.50;99.90;;;;;;5021582;28;20455;-73
2023/03/07 04:12:19;;;;;;;10.87;8.53;;;2.60;99.90;;;;;;5022118;28;20184;-73
2023/03/07 04:14:45;;;;;;;10.67;8.23;;;2.50;99.90;;;;;;5021876;28;20367;-74
2023/03/07 04:17:10;;;;;;;11.70;8.20;;;2.50;99.90;;;;;;5026831;28;20184;-74
2023/03/07 04:19:37;;;;;;;12.13;8.30;;;2.50;99.90;;;;;;5022748;28;20212;-74
2023/03/07 04:22:03;;;;;;;11.13;9.17;;;2.40;99.90;;;;;;5028221;28;20777;-74
2023/03/07 04:24:28;;;;;;;11.17;9.33;;;2.40;99.90;;;;;;5028764;28;20318;-74
2023/03/07 04:26:54;;;;;;;9.20;8.20;;;2.40;99.90;;;;;;5027590;28;20177;-74
2023/03/07 04:29:19;;;;;;;10.70;8.50;;;2.20;99.90;;;;;;5027973;28;20563;-74
2023/03/07 04:31:45;;;;;;;12.27;8.47;;;2.20;99.90;;;;;;5026843;28;20177;-73
2023/03/07 04:34:10;;;;;;;8.77;7.77;;;2.20;99.90;;;;;;5024014;28;20632;-73
2023/03/07 04:36:36;;;;;;;10.70;8.57;;;2.20;99.90;;;;;;5022220;28;20235;-73
2023/03/07 04:39:02;;;;;;;11.70;9.37;;;2.00;99.90;;;;;;5025261;28;20207;-73
2023/03/07 04:41:28;;;;;;;12.00;9.20;;;2.00;99.90;;;;;;5026773;28;20203;-73
2023/03/07 04:43:54;;;;;;;9.10;8.03;;;2.00;99.90;;;;;;5024949;28;20682;-73
2023/03/07 04:46:19;;;;;;;9.63;8.10;;;2.00;99.90;;;;;;5026616;28;20194;-73
2023/03/07 04:48:46;;;;;;;10.77;8.60;;;1.90;99.90;;;;;;5018358;28;20243;-73
2023/03/07 04:51:11;;;;;;;12.23;9.17;;;1.90;99.90;;;;;;5018381;28;20184;-74
2023/03/07 04:53:37;;;;;;;9.40;8.17;;;1.90;99.90;;;;;;5021737;28;20671;-73
2023/03/07 04:56:07;;;;;;;13.20;8.90;;;1.90;99.90;;;;;;5026811;28;20187;-73
2023/03/07 04:58:33;;;;;;;10.00;8.53;;;2.00;99.90;;;;;;5022143;28;20209;-73
2023/03/07 05:01:00;;;;;;;11.80;9.43;;;2.00;99.90;;;;;;5025266;28;20189;-73
2023/03/07 05:03:26;;;;;;;13.20;8.97;;;2.10;99.90;;;;;;5022711;28;20300;-72
2023/03/07 05:05:52;;;;;;;15.80;9.00;;;2.20;99.90;;;;;;5020344;28;20189;-73
2023/03/07 05:08:19;;;;;;;12.40;8.50;;;2.20;99.90;;;;;;5022187;28;20188;-73
2023/03/07 05:10:45;;;;;;;11.33;8.23;;;2.20;99.90;;;;;;5021734;28;20681;-73
2023/03/07 05:13:10;;;;;;;9.40;7.83;;;2.20;99.90;;;;;;5021062;28;20211;-72
2023/03/07 05:15:36;;;;;;;10.60;8.67;;;2.40;99.90;;;;;;5019657;28;20212;-72
2023/03/07 05:18:02;;;;;;;9.13;7.77;;;2.60;99.90;;;;;;5022184;28;20262;-73
2023/03/07 05:20:28;;;;;;;12.95;10.90;;;2.50;99.90;;;;;;5024916;28;20279;-73
2023/03/07 05:22:55;;;;;;;9.63;7.23;;;2.40;99.90;;;;;;5022826;28;20260;-73
2023/03/07 05:25:21;;;;;;;12.97;9.60;;;2.50;99.90;;;;;;5024589;28;20193;-74
2023/03/07 05:27:47;;;;;;;8.60;6.67;;;2.60;99.90;;;;;;5022909;28;20619;-74
2023/03/07 05:30:13;;;;;;;9.57;5.73;;;2.60;99.90;;;;;;5025584;28;21025;-72
2023/03/07 05:32:39;;;;;;;9.13;7.77;;;2.70;99.90;;;;;;5025788;28;20176;-72
2023/03/07 05:35:07;;;;;;;12.13;8.47;;;2.90;99.90;;;;;;5023771;28;20217;-72
2023/03/07 05:37:33;;;;;;;11.00;8.73;;;2.90;99.90;;;;;;5018836;28;20311;-72
2023/03/07 05:39:58;;;;;;;11.50;7.80;;;2.90;99.90;;;;;;5025189;28;20205;-72
2023/03/07 05:42:24;;;;;;;9.37;7.20;;;2.90;99.90;;;;;;5027303;28;20188;-73
2023/03/07 05:44:50;;;;;;;11.67;9.27;;;2.90;99.90;;;;;;5024040;28;20204;-73
2023/03/07 05:47:15;;;;;;;12.07;9.60;;;2.90;99.90;;;;;;5022338;28;20699;-73
2023/03/07 05:49:41;;;;;;;13.87;8.87;;;2.90;99.90;;;;;;5022566;28;20201;-73
2023/03/07 05:52:06;;;;;;;11.63;9.03;;;2.90;99.90;;;;;;5024391;28;20176;-73
2023/03/07 05:54:32;;;;;;;10.50;9.13;;;2.90;99.90;;;;;;5020444;28;20663;-74
2023/03/07 05:56:57;;;;;;;10.13;8.83;;;2.90;99.90;;;;;;5022970;28;20193;-75
2023/03/07 05:59:23;;;;;;;11.20;7.80;;;2.80;99.90;;;;;;5021086;28;20447;-74
2023/03/07 06:01:49;;;;;;;11.57;8.97;;;2.80;99.90;;;;;;5022436;28;20192;-73
2023/03/07 06:04:14;;;;;;;9.67;7.53;;;2.90;99.90;;;;;;5018101;28;20308;-74
2023/03/07 06:06:40;;;;;;;12.50;7.67;;;3.00;99.90;;;;;;5023272;28;20184;-74
2023/03/07 06:09:05;;;;;;;11.60;8.17;;;2.90;99.90;;;;;;5023095;28;20679;-74
2023/03/07 06:11:32;;;;;;;8.73;7.83;;;3.10;99.90;;;;;;5019496;28;20272;-74
2023/03/07 06:13:57;;;;;;;9.90;8.03;;;3.10;99.90;;;;;;5021608;28;20189;-74
2023/03/07 06:16:23;;;;;;;12.33;6.73;;;3.10;99.90;;;;;;5023478;28;20239;-74
2023/03/07 06:18:48;;;;;;;12.17;9.97;;;3.10;99.90;;;;;;5023448;28;20245;-75
2023/03/07 06:21:16;;;;;;;9.90;8.13;;;3.10;99.90;;;;;;5022051;28;20201;-75
2023/03/07 06:23:42;;;;;;;11.03;9.30;;;3.10;99.90;;;;;;5023361;28;20236;-75
2023/03/07 06:26:09;;;;;;;9.90;8.13;;;3.20;99.90;;;;;;5022666;28;20208;-75
2023/03/07 06:28:35;;;;;;;10.57;5.70;;;3.30;99.90;;;;;;5021620;28;20196;-74
2023/03/07 06:31:07;;;;;;;9.13;7.13;;;3.30;99.90;;;;;;5021796;28;20168;-74
2023/03/07 06:33:33;;;;;;;14.70;10.50;;;3.40;99.90;;;;;;5021571;28;20235;-79
2023/03/07 06:35:58;;;;;;;8.43;5.13;;;3.30;99.90;;;;;;5019421;28;20214;-78
2023/03/07 06:38:24;;;;;;;11.60;8.13;;;3.30;99.90;;;;;;5022210;28;20569;-77
2023/03/07 06:40:56;;;;;;;8.53;7.03;;;3.20;99.90;;;;;;5021276;28;20184;-77
2023/03/07 06:43:21;;;;;;;15.27;8.57;;;3.30;99.90;;;;;;5024175;28;20208;-76
2023/03/07 06:45:47;;;;;;;10.87;7.73;;;3.30;99.90;;;;;;5019199;28;20177;-76
2023/03/07 06:48:13;;;;;;;9.00;6.67;;;3.30;99.90;;;;;;5021067;28;20181;-76
2023/03/07 06:50:38;;;;;;;8.27;7.03;;;3.30;99.90;;;;;;5021515;28;20183;-74
2023/03/07 06:53:04;;;;;;;10.10;7.68;;;3.30;99.90;;;;;;5021139;28;20557;-75
2023/03/07 06:55:30;;;;;;;11.20;7.33;;;3.40;99.90;;;;;;5021068;28;20715;-75
2023/03/07 06:57:55;;;;;;;9.60;7.67;;;3.50;99.90;;;;;;5019319;28;20237;-76
2023/03/07 07:00:21;;;;;;;12.10;6.77;;;3.60;99.90;;;;;;5022865;28;20690;-77
2023/03/07 07:02:47;;;;;;;12.38;8.88;;;3.70;99.90;;;;;;5024004;28;20172;-77
2023/03/07 07:05:13;;;;;;;9.35;6.10;;;4.00;99.90;;;;;;5022642;28;21939;-75
2023/03/07 07:07:38;;;;;;;11.15;8.15;;;4.20;99.90;;;;;;5020467;28;20185;-76
2023/03/07 07:10:04;;;;;;;9.97;7.73;;;4.30;99.90;;;;;;5015506;28;20920;-75
2023/03/07 07:12:30;;;;;;;12.73;8.48;;;4.40;99.90;;;;;;5020558;28;20188;-76
2023/03/07 07:14:55;;;;;;;8.43;5.70;;;4.50;99.90;;;;;;5021259;28;20662;-75
2023/03/07 07:17:21;;;;;;;11.20;7.05;;;4.60;99.90;;;;;;5031880;28;20202;-76
2023/03/07 07:19:46;;;;;;;10.10;7.20;;;4.70;99.90;;;;;;5023505;28;20347;-76
2023/03/07 07:22:16;;;;;;;8.57;6.00;;;4.70;99.90;;;;;;5026316;28;20188;-73
2023/03/07 07:24:42;;;;;;;10.05;8.02;;;4.80;99.90;;;;;;5031401;28;20273;-74
2023/03/07 07:27:09;;;;;;;9.77;7.30;;;4.80;99.90;;;;;;5031262;28;20220;-73
2023/03/07 07:29:34;;;;;;;9.70;6.82;;;4.90;99.90;;;;;;5031534;28;20232;-73
2023/03/07 07:32:00;;;;;;;10.18;6.45;;;4.90;99.90;;;;;;5028286;28;20180;-73
2023/03/07 07:34:25;;;;;;;8.63;6.68;;;5.00;99.90;;;;;;5025663;28;20300;-72
2023/03/07 07:36:52;;;;;;;10.45;7.85;;;5.00;99.90;;;;;;5027256;28;20180;-73
2023/03/07 07:39:18;;;;;;;11.60;7.93;;;5.10;99.90;;;;;;5027981;28;20211;-75
2023/03/07 07:41:44;;;;;;;8.88;7.90;;;4.90;99.90;;;;;;5020755;28;20214;-75
2023/03/07 07:44:10;;;;;;;8.00;6.45;;;5.00;99.90;;;;;;5028689;28;20240;-74
2023/03/07 07:46:36;;;;;;;9.52;6.45;;;5.00;99.90;;;;;;5020874;28;20176;-74
2023/03/07 07:49:01;;;;;;;11.07;7.93;;;5.00;99.90;;;;;;5020914;28;20560;-73
2023/03/07 07:51:27;;;;;;;10.90;7.38;;;4.90;99.90;;;;;;5024786;28;20179;-75
2023/03/07 07:53:53;;;;;;;6.82;6.13;;;5.00;99.90;;;;;;5025737;28;20212;-74
2023/03/07 07:56:18;;;;;;;8.27;5.82;;;5.10;99.90;;;;;;5020968;28;20192;-74
2023/03/07 07:58:44;;;;;;;9.88;6.20;;;5.10;99.90;;;;;;5029759;28;20204;-73
2023/03/07 08:01:19;;;;;;;8.43;7.13;;;4.90;99.90;;;;;;5032406;28;20237;-73
2023/03/07 08:03:44;;;;;;;10.70;7.25;;;5.00;99.90;;;;;;5023582;28;20210;-73
2023/03/07 08:06:11;;;;;;;9.80;7.53;;;5.10;99.90;;;;;;5031393;28;20271;-74
2023/03/07 08:08:37;;;;;;;9.52;6.65;;;5.10;99.90;;;;;;5030207;28;20201;-74
2023/03/07 08:11:03;;;;;;;9.48;7.05;;;5.10;99.90;;;;;;5025374;28;20230;-73
2023/03/07 08:13:29;;;;;;;7.80;5.47;;;5.10;99.90;;;;;;5027484;28;20230;-73
2023/03/07 08:15:55;;;;;;;9.43;7.90;;;5.10;99.90;;;;;;5025651;28;20269;-73
2023/03/07 08:18:20;;;;;;;7.53;6.65;;;5.00;99.90;;;;;;5024110;28;20188;-74
2023/03/07 08:20:46;;;;;;;8.95;6.28;;;5.00;99.90;;;;;;5031072;28;20238;-74
2023/03/07 08:23:11;;;;;;;8.85;6.80;;;5.10;99.90;;;;;;5028238;28;20221;-74
2023/03/07 08:25:37;;;;;;;11.75;7.88;;;5.30;99.90;;;;;;5025297;28;20168;-73
2023/03/07 08:28:04;;;;;;;8.80;7.53;;;5.40;99.90;;;;;;5020027;28;20230;-74
2023/03/07 08:30:32;;;;;;;11.35;7.15;;;5.50;99.90;;;;;;5032952;28;20686;-72
2023/03/07 08:32:58;;;;;;;10.25;8.48;;;5.60;99.90;;;;;;5028028;28;20601;-73
2023/03/07 08:35:26;;;;;;;6.60;5.15;;;5.40;99.90;;;;;;5022887;28;20189;-72
2023/03/07 08:37:58;;;;;;;10.75;7.20;;;5.50;99.90;;;;;;5025287;28;20192;-73
2023/03/07 08:40:24;;;;;;;10.70;8.27;;;5.50;99.90;;;;;;5016389;28;20286;-73
2023/03/07 08:42:50;;;;;;;10.13;7.63;;;5.50;99.90;;;;;;5020336;28;20572;-72
2023/03/07 08:45:16;;;;;;;6.78;5.07;;;5.60;99.90;;;;;;5024346;28;20226;-72
2023/03/07 08:47:41;;;;;;;8.98;6.00;;;5.70;99.90;;;;;;5020789;28;20185;-75
2023/03/07 08:50:09;;;;;;;8.05;7.25;;;5.80;99.90;;;;;;5020966;28;20286;-73
2023/03/07 08:52:34;;;;;;;13.13;7.47;;;5.90;99.90;;;;;;5021189;28;20659;-73
2023/03/07 08:55:00;;;;;;;11.45;8.00;;;5.90;99.90;;;;;;5023029;28;20268;-73
2023/03/07 08:57:26;;;;;;;9.15;6.38;;;6.00;99.90;;;;;;5021090;28;20189;-72
2023/03/07 08:59:51;;;;;;;10.77;8.10;;;6.10;99.90;;;;;;5022079;28;20208;-73
2023/03/07 09:02:17;;;;;;;7.97;5.78;;;6.30;99.90;;;;;;5031026;28;20176;-72
2023/03/07 09:04:42;;;;;;;11.05;8.18;;;6.20;99.90;;;;;;5026301;28;20197;-72
2023/03/07 09:07:08;;;;;;;10.85;7.03;;;6.30;99.90;;;;;;5023254;28;20187;-73
2023/03/07 09:09:33;;;;;;;9.55;7.85;;;6.40;99.90;;;;;;5027083;28;20193;-73
2023/03/07 09:11:59;;;;;;;12.00;7.80;;;6.50;99.90;;;;;;5022793;28;20709;-73
2023/03/07 09:14:25;;;;;;;9.15;7.25;;;6.60;99.90;;;;;;5032389;28;20190;-72
2023/03/07 09:16:50;;;;;;;8.50;6.40;;;6.80;99.90;;;;;;5035999;28;20180;-72
2023/03/07 09:19:16;;;;;;;8.60;7.15;;;6.90;99.90;;;;;;5026663;28;20209;-72
2023/03/07 09:21:41;;;;;;;7.57;5.25;;;7.10;99.90;;;;;;5020263;28;20228;-72
2023/03/07 09:24:07;;;;;;;8.52;7.57;;;7.10;99.90;;;;;;5032225;28;20717;-73
2023/03/07 09:26:33;;;;;;;9.60;8.38;;;7.10;99.90;;;;;;5035221;28;20209;-72
2023/03/07 09:28:59;;;;;;;9.73;6.57;;;7.20;99.90;;;;;;5029129;28;20196;-72
2023/03/07 09:31:25;;;;;;;10.90;7.45;;;7.10;99.90;;;;;;5024749;28;20184;-73
2023/03/07 09:33:51;;;;;;;8.43;7.45;;;7.00;99.90;;;;;;5042933;28;20184;-72
2023/03/07 09:36:18;;;;;;;9.30;8.35;;;7.10;99.90;;;;;;5034170;28;20207;-72
2023/03/07 09:38:44;;;;;;;9.80;6.03;;;7.30;99.80;;;;;;5030768;28;20678;-72
2023/03/07 09:41:16;;;;;;;9.93;6.85;;;7.60;99.40;;;;;;5031314;28;20222;-72
2023/03/07 09:44:07;;;;;;;9.40;6.65;;;8.10;98.20;;;;;;5032756;28;20200;-72
2023/03/07 09:46:46;;;;;;;7.25;6.10;;;8.40;97.00;;;;;;5034088;28;20187;-72
2023/03/07 09:49:50;;;;;;;6.97;6.25;;;8.50;96.60;;;;;;5028061;28;20242;-72
2023/03/07 09:52:21;;;;;;;5.88;5.28;;;8.70;96.30;;;;;;5004948;28;20234;-72
2023/03/07 09:55:03;;;;;;;8.45;7.07;;;8.80;95.40;;;;;;5024401;28;20189;-72
2023/03/07 09:57:33;;;;;;;7.55;5.65;;;9.00;94.90;;;;;;5029599;28;20200;-72
2023/03/07 10:00:16;;;;;;;8.32;6.20;;;9.30;94.10;;;;;;5034797;28;20203;-72
2023/03/07 10:02:54;;;;;;;8.20;5.88;;;9.50;93.40;;;;;;5026829;28;20542;-73
2023/03/07 10:05:30;;;;;;;7.00;6.30;;;9.80;93.10;;;;;;5035948;28;20912;-75
2023/03/07 10:07:57;;;;;;;8.20;7.03;;;9.90;92.30;;;;;;5030924;28;20177;-74
2023/03/07 10:10:44;;;;;;;8.52;6.70;;;9.90;91.60;;;;;;5023578;28;20636;-74
2023/03/07 10:13:45;;;;;;;9.63;7.72;;;9.90;91.60;;;;;;5029433;28;20188;-73
2023/03/07 10:16:35;;;;;;;7.97;6.75;;;9.80;91.30;;;;;;5015558;28;20274;-73
2023/03/07 10:19:10;;;;;;;6.55;5.53;;;9.70;91.10;;;;;;5025511;28;20238;-72
2023/03/07 10:21:39;;;;;;;6.45;5.60;;;10.00;90.30;;;;;;5034478;28;20250;-73
2023/03/07 10:24:21;;;;;;;6.50;5.65;;;10.40;89.10;;;;;;5026638;28;20851;-73
2023/03/07 10:27:06;;;;;;;6.60;5.80;;;10.80;88.00;;;;;;5029397;28;20592;-73
2023/03/07 10:29:38;;;;;;;7.53;5.35;;;11.10;85.80;;;;;;5023304;28;20292;-72
2023/03/07 10:32:39;;;;;;;8.60;6.82;;;10.70;85.70;;;;;;5032959;28;20223;-72
2023/03/07 10:35:10;;;;;;;6.45;4.97;;;10.30;86.20;;;;;;5022160;28;20188;-73
2023/03/07 10:37:50;;;;;;;7.90;6.40;;;10.10;87.50;;;;;;5029603;28;20267;-72
2023/03/07 10:40:33;;;;;;;8.18;6.90;;;10.30;88.20;;;;;;5033734;28;20199;-73
2023/03/07 10:42:59;;;;;;;8.05;6.80;;;11.30;86.60;;;;;;5021980;28;20196;-72
2023/03/07 10:45:30;;;;;;;8.57;6.22;;;11.90;83.30;;;;;;5033763;28;20208;-73
2023/03/07 10:48:13;;;;;;;6.50;5.47;;;12.30;80.80;;;;;;5030705;28;20647;-75
2023/03/07 10:51:09;;;;;;;5.70;4.50;;;12.60;78.90;;;;;;5026612;28;20213;-75
2023/03/07 10:53:36;;;;;;;7.68;6.88;;;12.60;78.20;;;;;;5027114;28;20711;-75
2023/03/07 10:56:12;;;;;;;7.93;5.85;;;12.70;79.70;;;;;;5031648;28;20234;-76
2023/03/07 10:58:37;;;;;;;8.75;7.25;;;13.70;75.10;;;;;;5033066;28;20227;-75
2023/03/07 11:01:06;;;;;;;8.82;5.90;;;14.40;71.60;;;;;;5029586;28;20210;-75
2023/03/07 11:03:51;;;;;;;6.97;5.28;;;15.00;69.90;;;;;;5028792;28;20212;-75
2023/03/07 11:06:51;;;;;;;4.90;4.45;;;17.40;65.10;;;;;;5024447;28;20180;-75
2023/03/07 11:09:32;;;;;;;6.97;6.38;;;18.80;58.90;;;;;;5028191;28;20188;-75
2023/03/07 11:12:04;;;;;;;6.63;6.07;;;19.30;56.40;;;;;;5028636;28;20173;-75
2023/03/07 11:14:30;;;;;;;6.53;5.00;;;20.50;53.90;;;;;;5029413;28;20192;-75
2023/03/07 11:17:02;;;;;;;5.60;5.07;;;22.40;49.60;;;;;;5022879;28;20203;-77
2023/03/07 11:19:30;;;;;;;5.10;4.38;;;23.10;47.40;;;;;;5032131;28;20231;-75
2023/03/07 11:21:58;;;;;;;6.03;5.18;;;23.10;46.30;;;;;;5030248;28;20184;-75
2023/03/07 11:24:35;;;;;;;5.78;5.28;;;23.30;45.30;;;;;;5029428;28;20594;-75
2023/03/07 11:27:01;;;;;;;6.15;5.55;;;21.70;45.80;;;;;;5024048;28;20207;-75
2023/03/07 11:29:32;;;;;;;3.45;3.15;;;20.90;47.40;;;;;;5022643;28;20700;-74
2023/03/07 11:32:24;;;;;;;5.22;4.72;;;20.40;47.70;;;;;;5029232;28;20181;-75
2023/03/07 11:34:59;;;;;;;7.75;6.07;;;20.10;47.90;;;;;;5018114;28;20191;-75
2023/03/07 11:37:37;;;;;;;4.97;4.47;;;19.20;48.90;;;;;;5022965;28;20553;-75
2023/03/07 11:40:23;;;;;;;5.93;5.00;;;18.50;49.80;;;;;;5026392;28;20568;-75
2023/03/07 11:43:18;;;;;;;6.32;5.80;;;18.10;50.40;;;;;;5027408;28;20177;-76
2023/03/07 11:46:05;;;;;;;5.93;5.43;;;17.80;51.50;;;;;;5023381;28;20653;-76
2023/03/07 11:48:55;;;;;;;6.18;5.18;;;17.40;51.80;;;;;;5029809;28;20285;-75
2023/03/07 11:51:49;;;;;;;5.50;5.00;;;16.00;52.40;;;;;;5026386;28;20188;-74
2023/03/07 11:54:41;;;;;;;6.47;5.68;;;14.80;54.70;;;;;;5022505;28;20181;-75
2023/03/07 11:57:45;;;;;;;6.15;5.55;;;13.70;56.80;;;;;;5027664;28;20180;-74
2023/03/07 12:00:26;;;;;;;5.85;5.25;;;12.80;58.90;;;;;;5014243;28;20220;-73
2023/03/07 12:03:04;;;;;;;6.00;5.40;;;12.30;60.70;;;;;;5025779;28;20200;-73
2023/03/07 12:05:45;;;;;;;5.70;5.07;;;11.80;61.50;;;;;;5028588;28;20694;-74
2023/03/07 12:08:48;;;;;;;5.57;3.85;;;11.70;62.60;;;;;;5022643;28;20753;-73
2023/03/07 12:11:26;;;;;;;6.57;5.85;;;11.70;62.30;;;;;;5022249;28;20655;-73
2023/03/07 12:14:25;;;;;;;5.97;4.97;;;11.70;62.30;;;;;;5032262;28;20184;-73
2023/03/07 12:17:08;;;;;;;6.55;5.07;;;11.30;62.20;;;;;;5024042;28;20180;-74
2023/03/07 12:20:12;;;;;;;5.85;4.93;;;11.40;62.90;;;;;;5024186;28;20266;-74
2023/03/07 12:23:00;;;;;;;5.70;5.20;;;11.60;62.50;;;;;;5024044;28;20310;-74
2023/03/07 12:25:39;;;;;;;4.97;4.47;;;11.80;61.80;;;;;;5025885;28;20284;-74
2023/03/07 12:28:25;;;;;;;6.13;5.60;;;11.80;61.80;;;;;;5022249;28;20254;-74
2023/03/07 12:30:51;;;;;;;4.63;4.03;;;11.70;62.90;;;;;;5021578;28;20188;-76
2023/03/07 12:33:46;;;;;;;5.40;4.55;;;12.00;61.70;;;;;;5026698;28;20699;-74
2023/03/07 12:36:35;;;;;;;5.43;4.50;;;12.40;60.20;;;;;;5031867;28;20239;-74
2023/03/07 12:39:27;;;;;;;6.63;4.68;;;12.30;60.10;;;;;;5029932;28;20235;-73
2023/03/07 12:42:14;;;;;;;5.43;4.93;;;12.20;59.90;;;;;;5027982;28;20177;-74
2023/03/07 12:44:49;;;;;;;4.78;4.32;;;12.10;60.20;;;;;;5031522;28;20204;-74
2023/03/07 12:47:36;;;;;;;2.92;2.65;;;12.20;59.80;;;;;;5029647;28;20188;-75
2023/03/07 12:50:18;;;;;;;4.93;3.90;;;11.80;59.70;;;;;;5031801;28;20203;-74
2023/03/07 12:53:05;;;;;;;5.10;4.10;;;11.60;60.70;;;;;;5031256;28;20174;-75
2023/03/07 12:55:43;;;;;;;5.47;4.97;;;11.50;60.10;;;;;;5029968;28;20176;-75
2023/03/07 12:58:41;;;;;;;7.53;5.60;;;11.40;60.50;;;;;;5032993;28;20547;-74
2023/03/07 13:01:16;;;;;;;4.93;4.45;;;11.30;60.80;;;;;;5026288;28;20684;-75
2023/03/07 13:04:21;;;;;;;4.32;3.80;;;11.00;61.00;;;;;;5023818;28;20292;-75
2023/03/07 13:06:47;;;;;;;5.15;4.65;;;10.90;61.40;;;;;;5029658;28;20176;-74